createdAt,value
2019-04-29T00:00:30.442Z,127.27
2019-04-29T00:02:36.107Z,126.37
2019-04-29T00:04:40.188Z,122.87
2019-04-29T00:06:45.188Z,120.70
2019-04-29T00:08:49.311Z,118.97
2019-04-29T00:10:54.322Z,107.40
2019-04-29T00:12:58.277Z,121.60
2019-04-29T00:15:29.325Z,111.67
2019-04-29T00:17:45.626Z,109.00
2019-04-29T00:20:09.770Z,134.03
2019-04-29T00:22:16.808Z,114.27
2019-04-29T00:24:20.723Z,112.33
2019-04-29T00:26:24.736Z,100.87
2019-04-29T00:28:28.912Z,113.47
2019-04-29T00:30:34.184Z,110.57
2019-04-29T00:32:47.392Z,108.90
2019-04-29T00:34:51.468Z,98.17
2019-04-29T00:37:18.477Z,127.27
2019-04-29T00:39:39.900Z,108.33
2019-04-29T00:42:08.997Z,105.47
2019-04-29T00:44:14.486Z,107.57
2019-04-29T00:46:18.684Z,102.57
2019-04-29T00:48:22.625Z,99.20
2019-04-29T00:50:37.083Z,104.60
2019-04-29T00:52:41.010Z,92.60
2019-04-29T00:54:53.448Z,102.87
2019-04-29T00:56:57.463Z,107.43
2019-04-29T00:59:09.333Z,105.93
2019-04-29T01:01:18.046Z,92.53
2019-04-29T01:03:27.160Z,117.33
2019-04-29T01:05:32.195Z,101.13
2019-04-29T01:07:36.250Z,102.40
2019-04-29T01:09:41.216Z,101.70
2019-04-29T01:11:45.178Z,97.57
2019-04-29T01:13:49.239Z,104.77
2019-04-29T01:15:53.268Z,105.00
2019-04-29T01:17:57.209Z,107.00
2019-04-29T01:20:01.208Z,117.83
2019-04-29T01:22:05.305Z,99.17
2019-04-29T01:24:10.653Z,97.47
2019-04-29T01:26:33.689Z,116.20
2019-04-29T01:28:44.472Z,106.57
2019-04-29T01:30:57.917Z,107.07
2019-04-29T01:33:01.938Z,103.80
2019-04-29T01:35:06.005Z,107.43
2019-04-29T01:37:09.930Z,102.43
2019-04-29T01:39:15.595Z,115.73
2019-04-29T01:41:21.971Z,114.20
2019-04-29T01:43:45.245Z,105.60
2019-04-29T01:45:49.347Z,103.40
2019-04-29T01:47:53.305Z,100.17
2019-04-29T02:11:08.129Z,111.03
2019-04-29T02:14:19.317Z,113.97
2019-04-29T02:17:15.789Z,121.73
2019-04-29T02:20:03.836Z,124.33
2019-04-29T02:25:55.573Z,130.13
2019-04-29T02:27:59.442Z,120.00
2019-04-29T02:30:30.537Z,152.00
2019-04-29T02:32:34.793Z,130.37
2019-04-29T02:34:39.021Z,135.10
2019-04-29T02:36:43.249Z,144.53
2019-04-29T02:39:30.070Z,143.60
2019-04-29T02:44:36.975Z,133.63
2019-04-29T02:57:25.693Z,130.73
2019-04-29T02:59:34.308Z,125.00
2019-04-29T03:01:51.862Z,134.43
2019-04-29T03:04:06.056Z,134.13
2019-04-29T03:06:10.243Z,127.07
2019-04-29T03:08:15.088Z,137.27
2019-04-29T03:16:39.701Z,157.03
2019-04-29T03:19:01.606Z,147.17
2019-04-29T03:47:36.440Z,164.27
2019-04-29T04:00:50.409Z,167.07
2019-04-29T04:09:42.119Z,156.00
2019-04-29T04:26:36.195Z,157.30
2019-04-29T04:28:35.729Z,175.20
2019-04-29T04:31:06.802Z,176.00
2019-04-29T04:33:36.920Z,176.30
2019-04-29T04:36:04.874Z,168.87
2019-04-29T04:38:09.475Z,169.60
2019-04-29T04:40:28.283Z,159.13
2019-04-29T04:49:19.386Z,158.37
2019-04-29T04:58:14.064Z,148.07
2019-04-29T05:00:44.933Z,177.43
2019-04-29T05:02:52.335Z,149.37
2019-04-29T05:05:15.070Z,108.60
2019-04-29T05:07:19.093Z,80.97
2019-04-29T05:09:23.143Z,69.10
2019-04-29T05:11:55.747Z,77.67
2019-04-29T05:16:21.882Z,56.30
2019-04-29T05:18:49.245Z,63.33
2019-04-29T05:20:50.977Z,72.40
2019-04-29T05:23:13.646Z,55.97
2019-04-29T05:25:17.713Z,63.47
2019-04-29T05:27:21.730Z,52.90
2019-04-29T05:29:28.623Z,44.10
2019-04-29T05:31:55.427Z,47.23
2019-04-29T05:33:56.716Z,55.10
2019-04-29T05:36:19.115Z,53.17
2019-04-29T05:38:30.161Z,41.40
2019-04-29T05:41:18.772Z,45.97
2019-04-29T05:58:03.912Z,29.93
2019-04-29T06:00:23.274Z,35.23
2019-04-29T06:00:23.347Z,26.20
2019-04-29T06:02:58.647Z,27.33
2019-04-29T06:05:00.180Z,35.43
2019-04-29T06:07:27.030Z,24.30
2019-04-29T06:09:32.149Z,29.03
2019-04-29T06:11:37.187Z,24.63
2019-04-29T06:13:42.028Z,24.03
2019-04-29T06:15:45.819Z,24.53
2019-04-29T06:17:52.358Z,24.00
2019-04-29T06:19:59.503Z,25.77
2019-04-29T06:22:03.989Z,19.17
2019-04-29T06:24:08.047Z,31.73
2019-04-29T06:26:12.186Z,26.00
2019-04-29T06:28:16.156Z,20.97
2019-04-29T06:30:38.766Z,23.20
2019-04-29T06:33:24.306Z,23.77
2019-04-29T06:36:14.086Z,25.77
2019-04-29T06:38:17.341Z,22.43
2019-04-29T06:40:49.265Z,25.70
2019-04-29T06:43:07.980Z,29.80
2019-04-29T06:45:03.547Z,25.87
2019-04-29T06:47:07.695Z,29.67
2019-04-29T06:49:11.791Z,26.00
2019-04-29T06:51:16.274Z,28.13
2019-04-29T06:53:21.375Z,24.67
2019-04-29T06:55:25.985Z,24.23
2019-04-29T06:57:30.431Z,34.57
2019-04-29T06:59:34.613Z,29.20
2019-04-29T07:01:38.725Z,34.73
2019-04-29T07:03:42.849Z,26.63
2019-04-29T07:05:47.097Z,26.07
2019-04-29T07:07:51.264Z,24.97
2019-04-29T07:10:21.807Z,25.13
2019-04-29T07:13:22.861Z,24.90
2019-04-29T07:15:35.260Z,27.00
2019-04-29T07:18:12.825Z,23.27
2019-04-29T07:20:36.752Z,24.20
2019-04-29T07:23:04.503Z,25.33
2019-04-29T07:28:29.139Z,21.03
2019-04-29T07:31:04.951Z,17.90
2019-04-29T07:33:43.916Z,18.70
2019-04-29T07:36:36.158Z,19.17
2019-04-29T07:38:56.647Z,15.83
2019-04-29T07:41:36.015Z,15.10
2019-04-29T07:44:32.827Z,19.47
2019-04-29T07:46:58.287Z,20.03
2019-04-29T07:51:05.852Z,21.80
2019-04-29T07:53:35.046Z,21.80
2019-04-29T07:55:57.722Z,15.80
2019-04-29T07:58:15.367Z,23.93
2019-04-29T08:00:29.178Z,17.40
2019-04-29T08:02:43.119Z,14.70
2019-04-29T08:04:50.626Z,23.53
2019-04-29T08:07:22.249Z,18.23
2019-04-29T08:09:55.262Z,17.77
2019-04-29T08:12:17.622Z,17.97
2019-04-29T08:14:19.670Z,17.70
2019-04-29T08:16:34.442Z,20.00
2019-04-29T08:18:49.496Z,19.37
2019-04-29T08:21:10.303Z,23.90
2019-04-29T08:23:12.852Z,18.53
2019-04-29T08:25:16.002Z,17.13
2019-04-29T08:30:19.544Z,17.33
2019-04-29T08:32:40.221Z,17.27
2019-04-29T08:35:03.247Z,18.27
2019-04-29T08:37:16.449Z,17.20
2019-04-29T08:45:40.374Z,13.90
2019-04-29T08:48:09.905Z,18.23
2019-04-29T08:50:56.729Z,17.33
2019-04-29T08:53:23.434Z,17.77
2019-04-29T08:58:17.632Z,18.20
2019-04-29T09:00:55.849Z,20.17
2019-04-29T09:03:39.684Z,16.60
2019-04-29T09:06:05.880Z,12.60
2019-04-29T09:08:33.032Z,15.70
2019-04-29T09:10:48.054Z,18.03
2019-04-29T09:13:10.723Z,15.10
2019-04-29T09:15:49.353Z,16.83
2019-04-29T09:18:38.992Z,18.23
2019-04-29T09:21:04.686Z,15.53
2019-04-29T09:23:33.760Z,16.43
2019-04-29T09:26:25.281Z,16.60
2019-04-29T09:29:03.886Z,18.83
2019-04-29T09:31:26.481Z,14.77
2019-04-29T09:34:06.750Z,16.73
2019-04-29T09:36:56.938Z,14.30
2019-04-29T09:39:41.904Z,11.57
2019-04-29T09:42:15.172Z,14.03
2019-04-29T09:44:53.568Z,11.20
2019-04-29T09:50:14.791Z,11.33
2019-04-29T09:55:47.881Z,12.10
2019-04-29T09:58:02.769Z,13.23
2019-04-29T10:01:19.119Z,8.50
2019-04-29T10:03:40.192Z,10.33
2019-04-29T10:06:07.822Z,11.10
2019-04-29T10:08:50.026Z,7.73
2019-04-29T10:11:11.757Z,11.00
2019-04-29T10:13:41.139Z,7.60
2019-04-29T10:16:42.404Z,6.80
2019-04-29T10:19:21.296Z,6.67
2019-04-29T10:21:42.811Z,9.70
2019-04-29T10:23:58.853Z,7.20
2019-04-29T10:26:33.049Z,5.90
2019-04-29T10:29:04.483Z,18.73
2019-04-29T10:31:43.132Z,11.30
2019-04-29T10:33:38.382Z,8.60
2019-04-29T10:36:02.571Z,7.47
2019-04-29T10:41:08.502Z,6.53
2019-04-29T10:43:39.951Z,9.30
2019-04-29T10:46:21.103Z,6.10
2019-04-29T10:49:15.041Z,7.90
2019-04-29T10:51:58.124Z,5.43
2019-04-29T10:54:21.539Z,6.00
2019-04-29T10:56:56.784Z,8.90
2019-04-29T10:59:16.920Z,7.37
2019-04-29T11:02:32.296Z,6.13
2019-04-29T11:05:16.798Z,6.43
2019-04-29T11:07:52.353Z,6.20
2019-04-29T11:12:36.236Z,16.37
2019-04-29T11:14:40.481Z,8.83
2019-04-29T11:16:46.982Z,6.40
2019-04-29T11:18:50.834Z,5.87
2019-04-29T11:20:55.521Z,4.83
2019-04-29T11:23:18.374Z,5.17
2019-04-29T11:25:55.095Z,6.00
2019-04-29T11:27:59.420Z,6.03
2019-04-29T11:30:14.700Z,5.53
2019-04-29T11:32:40.794Z,5.93
2019-04-29T11:35:10.628Z,8.17
2019-04-29T11:37:55.383Z,4.80
2019-04-29T11:40:00.103Z,6.80
2019-04-29T11:42:13.228Z,4.83
2019-04-29T11:44:37.466Z,6.47
2019-04-29T11:47:00.880Z,3.70
2019-04-29T11:49:15.473Z,4.23
2019-04-29T11:52:08.450Z,4.23
2019-04-29T11:54:34.208Z,6.63
2019-04-29T11:56:56.254Z,4.23
2019-04-29T11:59:22.798Z,6.60
2019-04-29T12:01:51.617Z,3.90
2019-04-29T12:03:56.592Z,6.23
2019-04-29T12:06:02.167Z,7.00
2019-04-29T12:08:19.190Z,3.83
2019-04-29T12:10:38.318Z,8.03
2019-04-29T12:13:10.333Z,8.13
2019-04-29T12:15:45.056Z,8.30
2019-04-29T12:18:06.101Z,4.20
2019-04-29T12:20:48.997Z,4.23
2019-04-29T12:22:59.945Z,3.40
2019-04-29T12:25:27.626Z,3.57
2019-04-29T12:27:50.941Z,4.07
2019-04-29T12:30:15.899Z,4.53
2019-04-29T12:32:47.152Z,3.33
2019-04-29T12:35:30.262Z,3.47
2019-04-29T12:38:05.973Z,4.20
2019-04-29T12:40:58.305Z,6.53
2019-04-29T12:43:33.801Z,3.73
2019-04-29T12:46:19.174Z,4.87
2019-04-29T12:48:46.737Z,5.33
2019-04-29T12:57:18.814Z,3.30
2019-04-29T12:59:50.692Z,5.43
2019-04-29T13:02:24.158Z,3.80
2019-04-29T13:05:01.359Z,5.20
2019-04-29T13:07:33.967Z,3.60
2019-04-29T13:09:46.589Z,3.03
2019-04-29T13:12:21.435Z,3.37
2019-04-29T13:15:02.278Z,3.87
2019-04-29T13:17:44.602Z,5.10
2019-04-29T13:20:37.558Z,3.60
2019-04-29T13:33:17.418Z,3.60
2019-04-29T13:36:00.396Z,4.13
2019-04-29T13:38:29.639Z,4.27
2019-04-29T13:41:12.698Z,6.40
2019-04-29T13:43:35.502Z,5.80
2019-04-29T13:46:34.563Z,6.10
2019-04-29T14:03:54.076Z,10.33
2019-04-29T14:06:39.959Z,7.77
2019-04-29T14:09:24.628Z,8.40
2019-04-29T14:12:02.960Z,11.10
2019-04-29T14:14:53.825Z,8.10
2019-04-29T14:17:26.665Z,8.23
2019-04-29T14:19:46.521Z,10.07
2019-04-29T14:22:01.768Z,11.23
2019-04-29T14:24:11.242Z,11.00
2019-04-29T14:26:42.078Z,12.03
2019-04-29T14:29:02.627Z,10.73
2019-04-29T14:31:45.750Z,10.47
2019-04-29T14:34:10.243Z,14.57
2019-04-29T14:36:47.220Z,12.83
2019-04-29T14:39:06.561Z,16.80
2019-04-29T14:41:58.920Z,14.60
2019-04-29T14:44:55.082Z,17.47
2019-04-29T14:47:58.600Z,13.00
2019-04-29T14:50:34.158Z,15.27
2019-04-29T14:52:51.423Z,17.20
2019-04-29T14:55:19.761Z,16.07
2019-04-29T15:00:53.251Z,17.43
2019-04-29T15:03:41.883Z,16.60
2019-04-29T15:05:34.967Z,16.47
2019-04-29T15:08:20.956Z,18.73
2019-04-29T15:10:54.559Z,17.77
2019-04-29T15:13:43.148Z,19.93
2019-04-29T15:19:31.288Z,20.80
2019-04-29T15:22:08.387Z,20.67
2019-04-29T15:27:37.719Z,26.93
2019-04-29T15:30:00.567Z,21.33
2019-04-29T15:32:37.774Z,19.53
2019-04-29T15:35:29.011Z,23.50
2019-04-29T15:38:12.443Z,24.60
2019-04-29T15:41:09.320Z,24.07
2019-04-29T15:46:46.211Z,24.50
2019-04-29T15:50:32.600Z,24.47
2019-04-29T15:52:26.032Z,32.83
2019-04-29T15:54:55.177Z,33.77
2019-04-29T15:57:23.051Z,28.90
2019-04-29T16:03:38.793Z,34.83
2019-04-29T16:12:22.599Z,35.53
2019-04-29T16:14:56.282Z,32.00
2019-04-29T16:17:20.601Z,32.40
2019-04-29T16:19:50.635Z,33.07
2019-04-29T16:23:00.523Z,34.67
2019-04-29T16:25:52.420Z,30.53
2019-04-29T16:28:14.383Z,37.60
2019-04-29T16:30:37.379Z,30.77
2019-04-29T16:36:21.518Z,35.53
2019-04-29T16:38:51.404Z,28.70
2019-04-29T16:44:34.538Z,28.53
2019-04-29T16:47:13.315Z,27.73
2019-04-29T16:49:25.490Z,29.87
2019-04-29T16:52:23.291Z,26.40
2019-04-29T16:54:40.028Z,24.97
2019-04-29T16:57:30.185Z,27.43
2019-04-29T16:59:57.067Z,34.23
2019-04-29T17:03:12.440Z,29.07
2019-04-29T17:08:00.010Z,35.53
2019-04-29T17:10:29.890Z,40.03
2019-04-29T17:12:40.102Z,30.87
2019-04-29T17:15:03.181Z,32.03
2019-04-29T17:17:04.007Z,38.87
2019-04-29T17:19:55.623Z,29.70
2019-04-29T17:22:25.652Z,32.57
2019-04-29T17:24:37.702Z,37.03
2019-04-29T17:27:10.477Z,33.93
2019-04-29T17:30:15.506Z,34.27
2019-04-29T17:33:05.717Z,34.57
2019-04-29T17:37:47.724Z,33.33
2019-04-29T17:40:20.599Z,34.17
2019-04-29T17:42:38.437Z,28.87
2019-04-29T17:44:57.803Z,36.00
2019-04-29T17:47:57.796Z,21.70
2019-04-29T17:50:46.138Z,28.80
2019-04-29T17:53:02.260Z,28.40
2019-04-29T17:55:17.210Z,23.60
2019-04-29T17:57:54.491Z,29.50
2019-04-29T18:00:18.528Z,30.70
2019-04-29T18:02:42.340Z,23.33
2019-04-29T18:05:11.258Z,26.20
2019-04-29T18:07:25.185Z,27.37
2019-04-29T18:09:47.439Z,21.00
2019-04-29T18:11:55.720Z,23.87
2019-04-29T18:13:59.096Z,21.10
2019-04-29T18:16:04.643Z,20.90
2019-04-29T18:18:28.407Z,25.03
2019-04-29T18:21:26.775Z,19.17
2019-04-29T18:24:15.326Z,23.10
2019-04-29T18:26:56.628Z,22.67
2019-04-29T18:29:43.091Z,21.10
2019-04-29T18:31:55.682Z,21.67
2019-04-29T18:34:10.819Z,29.47
2019-04-29T18:36:43.376Z,22.20
2019-04-29T18:38:50.061Z,18.93
2019-04-29T18:40:59.206Z,22.30
2019-04-29T18:43:04.872Z,22.87
2019-04-29T18:45:38.061Z,22.87
2019-04-29T18:47:59.678Z,26.40
2019-04-29T18:50:15.879Z,30.93
2019-04-29T18:52:41.833Z,25.37
2019-04-29T18:54:55.942Z,23.03
2019-04-29T18:57:28.674Z,22.67
2019-04-29T18:59:33.272Z,20.20
2019-04-29T19:01:36.930Z,23.50
2019-04-29T19:04:31.544Z,23.73
2019-04-29T19:06:59.100Z,23.83
2019-04-29T19:09:20.156Z,22.40
2019-04-29T19:11:32.695Z,27.17
2019-04-29T19:13:56.417Z,29.60
2019-04-29T19:16:45.890Z,25.40
2019-04-29T19:18:33.672Z,31.43
2019-04-29T19:20:38.103Z,24.63
2019-04-29T19:22:44.004Z,25.07
2019-04-29T19:24:51.756Z,26.87
2019-04-29T19:27:00.549Z,26.77
2019-04-29T19:29:09.721Z,26.37
2019-04-29T19:31:18.544Z,30.77
2019-04-29T19:33:25.254Z,27.30
2019-04-29T19:35:39.050Z,29.63
2019-04-29T19:37:56.477Z,27.50
2019-04-29T19:40:14.889Z,28.03
2019-04-29T19:42:53.542Z,25.80
2019-04-29T19:45:13.155Z,23.40
2019-04-29T19:47:38.181Z,23.07
2019-04-29T19:49:55.431Z,23.50
2019-04-29T19:52:05.906Z,23.93
2019-04-29T19:54:32.787Z,26.90
2019-04-29T19:57:14.946Z,28.27
2019-04-29T19:59:31.983Z,22.40
2019-04-29T20:01:49.683Z,25.80
2019-04-29T20:04:25.941Z,26.87
2019-04-29T20:06:38.609Z,24.47
2019-04-29T20:11:27.873Z,28.80
2019-04-29T20:13:31.620Z,29.20
2019-04-29T20:15:46.011Z,35.17
2019-04-29T20:18:35.838Z,34.77
2019-04-29T20:20:54.105Z,29.30
2019-04-29T20:25:48.341Z,40.73
2019-04-29T20:28:05.093Z,37.67
2019-04-29T20:29:59.586Z,32.83
2019-04-29T20:32:07.429Z,34.40
2019-04-29T20:34:09.878Z,30.40
2019-04-29T20:36:14.029Z,33.27
2019-04-29T20:38:19.681Z,36.67
2019-04-29T20:40:26.900Z,31.60
2019-04-29T20:42:29.273Z,36.70
2019-04-29T20:48:06.665Z,36.07
2019-04-29T20:51:23.338Z,31.30
2019-04-29T20:57:29.324Z,38.13
2019-04-29T20:57:57.066Z,37.40
2019-04-29T21:01:25.781Z,44.57
2019-04-29T21:06:27.110Z,36.23
2019-04-29T21:08:55.050Z,37.33
2019-04-29T21:11:47.461Z,39.13
2019-04-29T21:14:38.200Z,35.10
2019-04-29T21:17:28.209Z,39.73
2019-04-29T21:19:47.339Z,46.90
2019-04-29T21:22:31.889Z,38.30
2019-04-29T21:25:17.724Z,47.00
2019-04-29T21:27:46.138Z,42.50
2019-04-29T21:30:09.319Z,48.77
2019-04-29T21:32:55.804Z,48.83
2019-04-29T21:35:27.161Z,46.30
2019-04-29T21:38:09.056Z,48.80
2019-04-29T21:40:59.010Z,55.03
2019-04-29T21:43:36.060Z,49.00
2019-04-29T21:46:24.890Z,44.67
2019-04-29T21:48:52.965Z,50.80
2019-04-29T21:51:21.681Z,49.53
2019-04-29T21:53:31.620Z,50.33
2019-04-29T21:56:06.265Z,46.57
2019-04-29T21:58:08.966Z,52.53
2019-04-29T22:00:15.644Z,48.60
2019-04-29T22:02:19.572Z,56.10
2019-04-29T22:04:24.011Z,56.57
2019-04-29T22:06:29.128Z,53.80
2019-04-29T22:08:35.485Z,60.57
2019-04-29T22:10:39.610Z,46.77
2019-04-29T22:12:43.539Z,54.90
2019-04-29T22:14:53.659Z,54.53
2019-04-29T22:16:57.125Z,55.27
2019-04-29T22:19:02.451Z,52.10
2019-04-29T22:21:09.785Z,59.80
2019-04-29T22:23:13.231Z,58.63
2019-04-29T22:25:20.847Z,56.57
2019-04-29T22:27:24.722Z,52.43
2019-04-29T22:29:32.153Z,49.53
2019-04-29T22:31:38.179Z,53.57
2019-04-29T22:33:40.707Z,62.60
2019-04-29T22:35:45.244Z,60.00
2019-04-29T22:37:49.424Z,55.00
2019-04-29T22:39:53.479Z,59.67
2019-04-29T22:42:23.472Z,65.40
2019-04-29T22:44:26.132Z,61.90
2019-04-29T22:46:30.285Z,65.20
2019-04-29T22:48:34.844Z,56.23
2019-04-29T22:50:39.577Z,55.47
2019-04-29T22:52:45.319Z,60.00
2019-04-29T22:54:52.791Z,61.33
2019-04-29T22:57:23.044Z,59.57
2019-04-29T22:59:35.330Z,51.23
2019-04-29T23:01:42.244Z,57.83
2019-04-29T23:03:45.147Z,64.37
2019-04-29T23:05:50.463Z,52.40
2019-04-29T23:07:57.061Z,60.00
2019-04-29T23:10:00.172Z,57.20
2019-04-29T23:12:05.466Z,58.53
2019-04-29T23:14:10.197Z,57.70
2019-04-29T23:16:14.083Z,58.23
2019-04-29T23:18:24.741Z,58.00
2019-04-29T23:20:41.099Z,55.53
2019-04-29T23:22:52.662Z,60.67
2019-04-29T23:25:26.697Z,56.30
2019-04-29T23:27:48.513Z,59.13
2019-04-29T23:30:18.150Z,60.13
2019-04-29T23:32:22.533Z,61.37
2019-04-29T23:34:43.753Z,54.30
2019-04-29T23:36:51.657Z,60.03
2019-04-29T23:39:15.168Z,60.27
2019-04-29T23:41:41.015Z,61.80
2019-04-29T23:43:50.464Z,55.83
2019-04-29T23:46:06.728Z,60.53
2019-04-29T23:48:26.542Z,69.83
2019-04-29T23:50:42.374Z,59.50
2019-04-29T23:52:57.247Z,61.83
2019-04-29T23:55:01.216Z,58.27
2019-04-29T23:57:16.395Z,54.20
2019-04-29T23:59:25.197Z,63.13
